sensor_id;sensor_type;location;lat;lon;timestamp;pressure;altitude;pressure_sealevel;temperature;humidity
59939;BME280;45801;51.810;19.444;2024-01-15T00:01:12;96973.99;;;1.42;78.87
59939;BME280;45801;51.810;19.444;2024-01-15T00:04:05;96972.24;;;1.37;78.98
59939;BME280;45801;51.810;19.444;2024-01-15T00:06:31;96972.71;;;1.36;78.91
59939;BME280;45801;51.810;19.444;2024-01-15T00:08:59;96967.71;;;1.40;79.02
59939;BME280;45801;51.810;19.444;2024-01-15T00:11:26;96963.71;;;1.44;78.87
59939;BME280;45801;51.810;19.444;2024-01-15T00:13:53;96955.48;;;1.45;78.27
59939;BME280;45801;51.810;19.444;2024-01-15T00:16:19;96946.70;;;1.37;78.54
59939;BME280;45801;51.810;19.444;2024-01-15T00:18:46;96940.80;;;1.28;78.61
59939;BME280;45801;51.810;19.444;2024-01-15T00:21:12;96939.00;;;1.26;78.57
59939;BME280;45801;51.810;19.444;2024-01-15T00:23:42;96938.45;;;1.34;78.34
59939;BME280;45801;51.810;19.444;2024-01-15T00:26:11;96935.42;;;1.28;78.38
59939;BME280;45801;51.810;19.444;2024-01-15T00:28:39;96929.83;;;1.18;78.33
59939;BME280;45801;51.810;19.444;2024-01-15T00:31:05;96923.77;;;1.17;78.23
59939;BME280;45801;51.810;19.444;2024-01-15T00:33:32;96917.16;;;1.19;78.28
59939;BME280;45801;51.810;19.444;2024-01-15T00:35:58;96911.92;;;1.22;78.31
59939;BME280;45801;51.810;19.444;2024-01-15T00:38:25;96909.25;;;1.24;77.96
59939;BME280;45801;51.810;19.444;2024-01-15T00:40:51;96909.53;;;1.31;78.08
59939;BME280;45801;51.810;19.444;2024-01-15T00:43:18;96906.98;;;1.32;77.64
59939;BME280;45801;51.810;19.444;2024-01-15T00:45:45;96901.43;;;1.35;77.66
59939;BME280;45801;51.810;19.444;2024-01-15T00:48:12;96898.48;;;1.39;77.50
59939;BME280;45801;51.810;19.444;2024-01-15T00:50:38;96893.22;;;1.41;77.39
59939;BME280;45801;51.810;19.444;2024-01-15T00:53:05;96890.94;;;1.36;78.69
59939;BME280;45801;51.810;19.444;2024-01-15T00:55:32;96886.55;;;1.51;79.55
59939;BME280;45801;51.810;19.444;2024-01-15T00:57:59;96878.61;;;1.82;78.34
59939;BME280;45801;51.810;19.444;2024-01-15T01:00:25;96877.27;;;2.14;76.59
59939;BME280;45801;51.810;19.444;2024-01-15T01:02:52;96875.69;;;2.22;76.24
59939;BME280;45801;51.810;19.444;2024-01-15T01:05:18;96875.67;;;2.22;76.00
59939;BME280;45801;51.810;19.444;2024-01-15T01:07:45;96874.19;;;2.19;75.98
59939;BME280;45801;51.810;19.444;2024-01-15T01:10:12;96870.25;;;2.11;75.43
59939;BME280;45801;51.810;19.444;2024-01-15T01:12:38;96868.77;;;2.08;75.63
59939;BME280;45801;51.810;19.444;2024-01-15T01:15:05;96861.86;;;1.99;75.34
59939;BME280;45801;51.810;19.444;2024-01-15T01:17:32;96857.05;;;1.95;75.54
59939;BME280;45801;51.810;19.444;2024-01-15T01:19:59;96854.40;;;1.89;75.51
59939;BME280;45801;51.810;19.444;2024-01-15T01:22:25;96846.38;;;1.87;75.96
59939;BME280;45801;51.810;19.444;2024-01-15T01:24:52;96841.50;;;1.81;75.97
59939;BME280;45801;51.810;19.444;2024-01-15T01:27:18;96838.97;;;1.83;76.14
59939;BME280;45801;51.810;19.444;2024-01-15T01:29:44;96839.99;;;1.78;75.72
59939;BME280;45801;51.810;19.444;2024-01-15T01:32:11;96842.17;;;1.67;75.27
59939;BME280;45801;51.810;19.444;2024-01-15T01:34:41;96832.61;;;1.70;75.74
59939;BME280;45801;51.810;19.444;2024-01-15T01:37:10;96829.46;;;1.60;75.75
59939;BME280;45801;51.810;19.444;2024-01-15T01:39:40;96822.95;;;1.56;75.92
59939;BME280;45801;51.810;19.444;2024-01-15T01:42:07;96819.24;;;1.59;75.87
59939;BME280;45801;51.810;19.444;2024-01-15T01:44:34;96818.16;;;1.58;75.80
59939;BME280;45801;51.810;19.444;2024-01-15T01:47:01;96813.84;;;1.49;75.74
59939;BME280;45801;51.810;19.444;2024-01-15T01:49:28;96810.78;;;1.46;76.33
59939;BME280;45801;51.810;19.444;2024-01-15T01:51:59;96809.73;;;1.41;76.27
59939;BME280;45801;51.810;19.444;2024-01-15T01:54:29;96803.43;;;1.47;76.31
59939;BME280;45801;51.810;19.444;2024-01-15T01:56:58;96806.85;;;1.42;76.15
59939;BME280;45801;51.810;19.444;2024-01-15T01:59:28;96805.45;;;1.33;76.19
59939;BME280;45801;51.810;19.444;2024-01-15T02:01:55;96802.00;;;1.28;76.12
59939;BME280;45801;51.810;19.444;2024-01-15T02:04:24;96796.19;;;1.30;76.10
59939;BME280;45801;51.810;19.444;2024-01-15T02:06:52;96786.21;;;1.31;75.99
59939;BME280;45801;51.810;19.444;2024-01-15T02:09:19;96779.52;;;1.31;76.21
59939;BME280;45801;51.810;19.444;2024-01-15T02:11:48;96773.75;;;1.34;76.29
59939;BME280;45801;51.810;19.444;2024-01-15T02:14:15;96776.19;;;1.34;76.31
59939;BME280;45801;51.810;19.444;2024-01-15T02:16:42;96781.14;;;1.29;76.40
59939;BME280;45801;51.810;19.444;2024-01-15T02:19:15;96778.30;;;1.31;76.46
59939;BME280;45801;51.810;19.444;2024-01-15T02:21:43;96773.91;;;1.38;76.49
59939;BME280;45801;51.810;19.444;2024-01-15T02:24:10;96769.79;;;1.38;76.90
59939;BME280;45801;51.810;19.444;2024-01-15T02:26:37;96770.70;;;1.31;77.50
59939;BME280;45801;51.810;19.444;2024-01-15T02:29:06;96765.87;;;1.35;77.12
59939;BME280;45801;51.810;19.444;2024-01-15T02:31:36;96762.83;;;1.32;77.51
59939;BME280;45801;51.810;19.444;2024-01-15T02:34:02;96762.79;;;1.31;77.89
59939;BME280;45801;51.810;19.444;2024-01-15T02:36:29;96758.38;;;1.33;78.34
59939;BME280;45801;51.810;19.444;2024-01-15T02:38:56;96748.55;;;1.33;78.40
59939;BME280;45801;51.810;19.444;2024-01-15T02:41:22;96749.64;;;1.34;78.33
59939;BME280;45801;51.810;19.444;2024-01-15T02:43:49;96746.58;;;1.31;78.35
59939;BME280;45801;51.810;19.444;2024-01-15T02:46:15;96738.57;;;1.16;79.21
59939;BME280;45801;51.810;19.444;2024-01-15T02:48:42;96739.52;;;1.18;78.72
59939;BME280;45801;51.810;19.444;2024-01-15T02:51:09;96736.05;;;1.13;78.83
59939;BME280;45801;51.810;19.444;2024-01-15T02:53:36;96726.94;;;1.09;78.90
59939;BME280;45801;51.810;19.444;2024-01-15T02:56:03;96724.52;;;1.10;78.83
59939;BME280;45801;51.810;19.444;2024-01-15T02:58:30;96721.48;;;1.11;78.97
59939;BME280;45801;51.810;19.444;2024-01-15T03:00:57;96716.98;;;1.10;78.92
59939;BME280;45801;51.810;19.444;2024-01-15T03:03:23;96714.54;;;1.14;78.79
59939;BME280;45801;51.810;19.444;2024-01-15T03:05:50;96711.52;;;1.16;78.73
59939;BME280;45801;51.810;19.444;2024-01-15T03:08:16;96711.92;;;1.14;78.73
59939;BME280;45801;51.810;19.444;2024-01-15T03:10:43;96707.92;;;1.09;78.76
59939;BME280;45801;51.810;19.444;2024-01-15T03:13:10;96702.77;;;1.08;78.52
59939;BME280;45801;51.810;19.444;2024-01-15T03:15:36;96700.73;;;1.14;78.39
59939;BME280;45801;51.810;19.444;2024-01-15T03:18:03;96698.77;;;1.21;78.33
59939;BME280;45801;51.810;19.444;2024-01-15T03:20:30;96698.06;;;1.21;77.87
59939;BME280;45801;51.810;19.444;2024-01-15T03:22:56;96699.02;;;1.14;78.11
59939;BME280;45801;51.810;19.444;2024-01-15T03:25:23;96694.27;;;1.03;78.46
59939;BME280;45801;51.810;19.444;2024-01-15T03:27:49;96696.06;;;0.96;78.68
59939;BME280;45801;51.810;19.444;2024-01-15T03:30:16;96688.41;;;0.94;78.73
59939;BME280;45801;51.810;19.444;2024-01-15T03:32:43;96689.73;;;0.97;78.39
59939;BME280;45801;51.810;19.444;2024-01-15T03:35:09;96691.12;;;0.88;78.71
59939;BME280;45801;51.810;19.444;2024-01-15T03:37:35;96680.86;;;0.82;78.99
59939;BME280;45801;51.810;19.444;2024-01-15T03:40:02;96676.95;;;0.75;79.01
59939;BME280;45801;51.810;19.444;2024-01-15T03:42:29;96676.67;;;0.80;79.01
59939;BME280;45801;51.810;19.444;2024-01-15T03:44:57;96675.46;;;0.76;79.38
59939;BME280;45801;51.810;19.444;2024-01-15T03:47:23;96674.83;;;0.69;79.79
59939;BME280;45801;51.810;19.444;2024-01-15T03:49:50;96673.33;;;0.66;79.78
59939;BME280;45801;51.810;19.444;2024-01-15T03:52:16;96670.17;;;0.73;79.43
59939;BME280;45801;51.810;19.444;2024-01-15T03:54:43;96665.89;;;0.69;79.84
59939;BME280;45801;51.810;19.444;2024-01-15T03:57:10;96661.21;;;0.60;80.40
59939;BME280;45801;51.810;19.444;2024-01-15T03:59:37;96655.48;;;0.59;80.14
59939;BME280;45801;51.810;19.444;2024-01-15T04:02:04;96653.91;;;0.62;79.94
59939;BME280;45801;51.810;19.444;2024-01-15T04:04:31;96649.83;;;0.73;79.67
59939;BME280;45801;51.810;19.444;2024-01-15T04:06:57;96644.52;;;0.73;79.82
59939;BME280;45801;51.810;19.444;2024-01-15T04:09:24;96644.94;;;0.75;79.78
59939;BME280;45801;51.810;19.444;2024-01-15T04:11:50;96643.07;;;0.76;79.53
59939;BME280;45801;51.810;19.444;2024-01-15T04:14:17;96639.37;;;0.83;79.26
59939;BME280;45801;51.810;19.444;2024-01-15T04:16:44;96641.50;;;0.89;79.28
59939;BME280;45801;51.810;19.444;2024-01-15T04:19:10;96640.45;;;0.88;79.01
59939;BME280;45801;51.810;19.444;2024-01-15T04:21:37;96642.78;;;0.90;78.91
59939;BME280;45801;51.810;19.444;2024-01-15T04:24:04;96639.69;;;0.91;78.96
59939;BME280;45801;51.810;19.444;2024-01-15T04:26:30;96637.33;;;0.92;78.87
59939;BME280;45801;51.810;19.444;2024-01-15T04:28:57;96638.73;;;0.84;78.80
59939;BME280;45801;51.810;19.444;2024-01-15T04:31:25;96630.73;;;0.82;78.85
59939;BME280;45801;51.810;19.444;2024-01-15T04:33:53;96633.23;;;0.85;78.63
59939;BME280;45801;51.810;19.444;2024-01-15T04:36:19;96627.65;;;0.83;78.55
59939;BME280;45801;51.810;19.444;2024-01-15T04:38:46;96624.42;;;0.84;78.65
59939;BME280;45801;51.810;19.444;2024-01-15T04:41:13;96623.41;;;0.76;78.80
59939;BME280;45801;51.810;19.444;2024-01-15T04:43:40;96618.73;;;0.70;78.97
59939;BME280;45801;51.810;19.444;2024-01-15T04:46:07;96612.92;;;0.68;78.97
59939;BME280;45801;51.810;19.444;2024-01-15T04:48:34;96612.79;;;0.60;79.13
59939;BME280;45801;51.810;19.444;2024-01-15T04:51:01;96614.14;;;0.55;79.47
59939;BME280;45801;51.810;19.444;2024-01-15T04:53:29;96617.42;;;0.63;79.03
59939;BME280;45801;51.810;19.444;2024-01-15T04:55:56;96616.54;;;0.59;78.64
59939;BME280;45801;51.810;19.444;2024-01-15T04:58:22;96614.70;;;0.60;78.67
59939;BME280;45801;51.810;19.444;2024-01-15T05:00:52;96613.75;;;0.58;78.69
59939;BME280;45801;51.810;19.444;2024-01-15T05:03:18;96612.74;;;0.63;78.59
59939;BME280;45801;51.810;19.444;2024-01-15T05:05:45;96614.13;;;0.68;78.48
59939;BME280;45801;51.810;19.444;2024-01-15T05:08:12;96610.39;;;0.64;78.44
59939;BME280;45801;51.810;19.444;2024-01-15T05:10:38;96610.36;;;0.63;78.57
59939;BME280;45801;51.810;19.444;2024-01-15T05:13:05;96610.15;;;0.54;78.80
59939;BME280;45801;51.810;19.444;2024-01-15T05:15:31;96609.52;;;0.51;79.14
59939;BME280;45801;51.810;19.444;2024-01-15T05:17:58;96610.89;;;0.42;79.43
59939;BME280;45801;51.810;19.444;2024-01-15T05:20:24;96604.13;;;0.41;79.73
59939;BME280;45801;51.810;19.444;2024-01-15T05:22:51;96603.55;;;0.35;80.16
59939;BME280;45801;51.810;19.444;2024-01-15T05:25:18;96600.66;;;0.45;79.48
59939;BME280;45801;51.810;19.444;2024-01-15T05:27:45;96598.36;;;0.47;79.27
59939;BME280;45801;51.810;19.444;2024-01-15T05:30:12;96587.39;;;0.54;79.10
59939;BME280;45801;51.810;19.444;2024-01-15T05:32:39;96580.13;;;0.66;78.79
59939;BME280;45801;51.810;19.444;2024-01-15T05:35:05;96576.79;;;0.68;78.43
59939;BME280;45801;51.810;19.444;2024-01-15T05:37:32;96576.10;;;0.64;78.53
59939;BME280;45801;51.810;19.444;2024-01-15T05:39:59;96578.21;;;0.65;78.74
59939;BME280;45801;51.810;19.444;2024-01-15T05:42:25;96580.84;;;0.66;78.62
59939;BME280;45801;51.810;19.444;2024-01-15T05:44:52;96582.79;;;0.72;78.38
59939;BME280;45801;51.810;19.444;2024-01-15T05:47:19;96584.75;;;0.74;78.12
59939;BME280;45801;51.810;19.444;2024-01-15T05:49:46;96583.62;;;0.80;78.13
59939;BME280;45801;51.810;19.444;2024-01-15T05:52:12;96578.84;;;0.81;77.98
59939;BME280;45801;51.810;19.444;2024-01-15T05:54:39;96569.51;;;0.85;77.78
59939;BME280;45801;51.810;19.444;2024-01-15T05:57:05;96569.80;;;0.89;77.92
59939;BME280;45801;51.810;19.444;2024-01-15T05:59:32;96565.36;;;0.90;77.93
59939;BME280;45801;51.810;19.444;2024-01-15T06:02:00;96565.30;;;0.92;77.90
59939;BME280;45801;51.810;19.444;2024-01-15T06:04:27;96564.04;;;0.82;77.96
59939;BME280;45801;51.810;19.444;2024-01-15T06:06:53;96564.19;;;0.77;78.40
59939;BME280;45801;51.810;19.444;2024-01-15T06:09:20;96561.26;;;0.72;78.66
59939;BME280;45801;51.810;19.444;2024-01-15T06:11:47;96558.20;;;0.69;79.06
59939;BME280;45801;51.810;19.444;2024-01-15T06:14:13;96555.21;;;0.72;78.84
59939;BME280;45801;51.810;19.444;2024-01-15T06:16:40;96548.02;;;0.73;79.51
59939;BME280;45801;51.810;19.444;2024-01-15T06:19:07;96548.46;;;0.71;80.45
59939;BME280;45801;51.810;19.444;2024-01-15T06:21:33;96550.55;;;0.72;81.74
59939;BME280;45801;51.810;19.444;2024-01-15T06:24:00;96552.70;;;0.69;81.09
59939;BME280;45801;51.810;19.444;2024-01-15T06:26:27;96553.21;;;0.69;80.85
59939;BME280;45801;51.810;19.444;2024-01-15T06:28:53;96550.06;;;0.68;81.21
59939;BME280;45801;51.810;19.444;2024-01-15T06:31:20;96551.50;;;0.65;81.30
59939;BME280;45801;51.810;19.444;2024-01-15T06:33:47;96547.31;;;0.68;80.86
59939;BME280;45801;51.810;19.444;2024-01-15T06:36:14;96549.16;;;0.71;80.78
59939;BME280;45801;51.810;19.444;2024-01-15T06:38:45;96553.44;;;0.66;81.44
59939;BME280;45801;51.810;19.444;2024-01-15T06:41:11;96551.39;;;0.66;81.87
59939;BME280;45801;51.810;19.444;2024-01-15T06:43:39;96553.89;;;0.69;81.87
59939;BME280;45801;51.810;19.444;2024-01-15T06:46:05;96554.67;;;0.67;81.71
59939;BME280;45801;51.810;19.444;2024-01-15T06:48:32;96557.35;;;0.65;81.53
59939;BME280;45801;51.810;19.444;2024-01-15T06:50:59;96556.29;;;0.68;81.18
59939;BME280;45801;51.810;19.444;2024-01-15T06:53:25;96558.41;;;0.75;80.84
59939;BME280;45801;51.810;19.444;2024-01-15T06:55:52;96562.15;;;0.73;81.17
59939;BME280;45801;51.810;19.444;2024-01-15T06:58:18;96566.50;;;0.65;81.47
59939;BME280;45801;51.810;19.444;2024-01-15T07:00:45;96568.63;;;0.67;81.34
59939;BME280;45801;51.810;19.444;2024-01-15T07:03:11;96572.61;;;0.63;81.17
59939;BME280;45801;51.810;19.444;2024-01-15T07:05:38;96572.88;;;0.56;81.30
59939;BME280;45801;51.810;19.444;2024-01-15T07:08:04;96576.72;;;0.53;82.05
59939;BME280;45801;51.810;19.444;2024-01-15T07:10:31;96574.78;;;0.48;82.70
59939;BME280;45801;51.810;19.444;2024-01-15T07:12:58;96583.27;;;0.49;83.21
59939;BME280;45801;51.810;19.444;2024-01-15T07:15:24;96591.41;;;0.55;82.60
59939;BME280;45801;51.810;19.444;2024-01-15T07:17:51;96595.65;;;0.57;81.79
59939;BME280;45801;51.810;19.444;2024-01-15T07:20:17;96595.65;;;0.57;81.36
59939;BME280;45801;51.810;19.444;2024-01-15T07:22:45;96595.84;;;0.53;80.81
59939;BME280;45801;51.810;19.444;2024-01-15T07:25:12;96594.46;;;0.49;80.85
59939;BME280;45801;51.810;19.444;2024-01-15T07:27:39;96600.70;;;0.54;80.28
59939;BME280;45801;51.810;19.444;2024-01-15T07:30:06;96607.54;;;0.53;79.50
59939;BME280;45801;51.810;19.444;2024-01-15T07:32:33;96614.13;;;0.50;79.46
59939;BME280;45801;51.810;19.444;2024-01-15T07:34:59;96616.72;;;0.46;79.47
59939;BME280;45801;51.810;19.444;2024-01-15T07:37:26;96620.31;;;0.37;80.15
59939;BME280;45801;51.810;19.444;2024-01-15T07:39:53;96633.52;;;0.36;79.87
59939;BME280;45801;51.810;19.444;2024-01-15T07:42:19;96631.20;;;0.38;79.65
59939;BME280;45801;51.810;19.444;2024-01-15T07:44:46;96631.58;;;0.34;79.55
59939;BME280;45801;51.810;19.444;2024-01-15T07:47:14;96623.25;;;0.32;79.08
59939;BME280;45801;51.810;19.444;2024-01-15T07:49:41;96632.36;;;0.28;78.94
59939;BME280;45801;51.810;19.444;2024-01-15T07:52:07;96631.36;;;0.37;78.35
59939;BME280;45801;51.810;19.444;2024-01-15T07:54:35;96634.02;;;0.35;78.36
59939;BME280;45801;51.810;19.444;2024-01-15T07:57:02;96631.77;;;0.35;78.40
59939;BME280;45801;51.810;19.444;2024-01-15T07:59:32;96626.27;;;0.35;77.86
59939;BME280;45801;51.810;19.444;2024-01-15T08:01:59;96635.34;;;0.25;77.32
59939;BME280;45801;51.810;19.444;2024-01-15T08:04:26;96629.49;;;0.25;77.11
59939;BME280;45801;51.810;19.444;2024-01-15T08:06:52;96622.35;;;0.23;77.29
59939;BME280;45801;51.810;19.444;2024-01-15T08:09:19;96626.16;;;0.32;77.40
59939;BME280;45801;51.810;19.444;2024-01-15T08:11:47;96627.36;;;0.40;77.28
59939;BME280;45801;51.810;19.444;2024-01-15T08:14:13;96623.73;;;0.49;76.94
59939;BME280;45801;51.810;19.444;2024-01-15T08:16:40;96620.95;;;0.48;76.79
59939;BME280;45801;51.810;19.444;2024-01-15T08:19:07;96620.96;;;0.53;77.02
59939;BME280;45801;51.810;19.444;2024-01-15T08:21:33;96623.02;;;0.57;77.06
59939;BME280;45801;51.810;19.444;2024-01-15T08:24:01;96628.17;;;0.65;77.24
59939;BME280;45801;51.810;19.444;2024-01-15T08:26:29;96628.09;;;0.59;77.12
59939;BME280;45801;51.810;19.444;2024-01-15T08:28:56;96630.55;;;0.55;77.45
59939;BME280;45801;51.810;19.444;2024-01-15T08:31:22;96636.27;;;0.52;77.82
59939;BME280;45801;51.810;19.444;2024-01-15T08:33:49;96634.34;;;0.51;77.89
59939;BME280;45801;51.810;19.444;2024-01-15T08:36:18;96632.76;;;0.55;78.07
59939;BME280;45801;51.810;19.444;2024-01-15T08:38:45;96629.75;;;0.62;77.99
59939;BME280;45801;51.810;19.444;2024-01-15T08:41:13;96632.61;;;0.64;77.81
59939;BME280;45801;51.810;19.444;2024-01-15T08:43:40;96630.80;;;0.62;77.73
59939;BME280;45801;51.810;19.444;2024-01-15T08:46:06;96632.27;;;0.65;77.98
59939;BME280;45801;51.810;19.444;2024-01-15T08:48:33;96629.73;;;0.66;77.68
59939;BME280;45801;51.810;19.444;2024-01-15T08:51:00;96624.52;;;0.68;77.46
59939;BME280;45801;51.810;19.444;2024-01-15T08:53:26;96623.91;;;0.71;77.55
59939;BME280;45801;51.810;19.444;2024-01-15T08:55:53;96623.14;;;0.73;77.66
59939;BME280;45801;51.810;19.444;2024-01-15T08:58:23;96620.64;;;0.75;77.54
59939;BME280;45801;51.810;19.444;2024-01-15T09:00:50;96625.27;;;0.75;77.62
59939;BME280;45801;51.810;19.444;2024-01-15T09:03:17;96623.61;;;0.81;77.61
59939;BME280;45801;51.810;19.444;2024-01-15T09:05:44;96628.36;;;0.88;77.57
59939;BME280;45801;51.810;19.444;2024-01-15T09:08:11;96626.75;;;0.91;77.31
59939;BME280;45801;51.810;19.444;2024-01-15T09:10:38;96622.20;;;0.85;77.21
59939;BME280;45801;51.810;19.444;2024-01-15T09:13:04;96613.33;;;0.86;77.12
59939;BME280;45801;51.810;19.444;2024-01-15T09:15:31;96615.33;;;0.89;77.02
59939;BME280;45801;51.810;19.444;2024-01-15T09:17:58;96614.88;;;0.91;77.02
59939;BME280;45801;51.810;19.444;2024-01-15T09:20:25;96617.84;;;0.83;76.95
59939;BME280;45801;51.810;19.444;2024-01-15T09:22:53;96618.31;;;0.78;76.76
59939;BME280;45801;51.810;19.444;2024-01-15T09:25:20;96617.27;;;0.77;76.94
59939;BME280;45801;51.810;19.444;2024-01-15T09:27:47;96618.64;;;0.81;77.05
59939;BME280;45801;51.810;19.444;2024-01-15T09:30:13;96620.09;;;0.83;76.63
59939;BME280;45801;51.810;19.444;2024-01-15T09:32:40;96620.73;;;0.82;76.65
59939;BME280;45801;51.810;19.444;2024-01-15T09:35:07;96622.48;;;0.87;76.48
59939;BME280;45801;51.810;19.444;2024-01-15T09:37:34;96617.84;;;0.88;76.25
59939;BME280;45801;51.810;19.444;2024-01-15T09:40:01;96616.36;;;0.94;76.26
59939;BME280;45801;51.810;19.444;2024-01-15T09:42:28;96618.09;;;0.94;75.57
59939;BME280;45801;51.810;19.444;2024-01-15T09:44:55;96612.55;;;0.93;75.59
59939;BME280;45801;51.810;19.444;2024-01-15T09:47:22;96620.71;;;0.91;75.25
59939;BME280;45801;51.810;19.444;2024-01-15T09:49:49;96609.09;;;0.84;75.12
59939;BME280;45801;51.810;19.444;2024-01-15T09:52:16;96604.94;;;0.84;75.43
59939;BME280;45801;51.810;19.444;2024-01-15T09:54:44;96609.02;;;0.95;76.00
59939;BME280;45801;51.810;19.444;2024-01-15T09:57:11;96614.45;;;0.98;75.18
59939;BME280;45801;51.810;19.444;2024-01-15T09:59:38;96608.86;;;0.92;75.21
59939;BME280;45801;51.810;19.444;2024-01-15T10:02:06;96610.61;;;1.01;75.62
59939;BME280;45801;51.810;19.444;2024-01-15T10:04:33;96607.52;;;1.11;74.57
59939;BME280;45801;51.810;19.444;2024-01-15T10:07:00;96602.59;;;1.08;73.91
59939;BME280;45801;51.810;19.444;2024-01-15T10:09:27;96598.28;;;1.03;74.31
59939;BME280;45801;51.810;19.444;2024-01-15T10:11:54;96603.06;;;0.98;75.05
59939;BME280;45801;51.810;19.444;2024-01-15T10:14:20;96600.23;;;0.91;75.83
59939;BME280;45801;51.810;19.444;2024-01-15T10:16:47;96607.34;;;0.79;76.37
59939;BME280;45801;51.810;19.444;2024-01-15T10:19:13;96603.67;;;0.69;76.50
59939;BME280;45801;51.810;19.444;2024-01-15T10:21:40;96608.45;;;0.58;76.75
59939;BME280;45801;51.810;19.444;2024-01-15T10:24:07;96608.13;;;0.64;76.65
59939;BME280;45801;51.810;19.444;2024-01-15T10:26:34;96605.85;;;0.72;76.39
59939;BME280;45801;51.810;19.444;2024-01-15T10:29:01;96595.92;;;0.73;76.45
59939;BME280;45801;51.810;19.444;2024-01-15T10:31:28;96599.37;;;0.73;76.52
59939;BME280;45801;51.810;19.444;2024-01-15T10:34:10;96607.80;;;0.73;76.13
59939;BME280;45801;51.810;19.444;2024-01-15T10:36:39;96596.80;;;0.65;75.88
59939;BME280;45801;51.810;19.444;2024-01-15T10:39:06;96586.08;;;0.73;76.04
59939;BME280;45801;51.810;19.444;2024-01-15T10:41:34;96583.98;;;0.71;75.51
59939;BME280;45801;51.810;19.444;2024-01-15T10:44:01;96585.75;;;0.64;75.20
59939;BME280;45801;51.810;19.444;2024-01-15T10:46:28;96589.65;;;0.62;75.25
59939;BME280;45801;51.810;19.444;2024-01-15T10:48:55;96587.02;;;0.66;75.37
59939;BME280;45801;51.810;19.444;2024-01-15T10:51:23;96583.49;;;0.68;75.02
59939;BME280;45801;51.810;19.444;2024-01-15T10:53:50;96582.17;;;0.65;75.32
59939;BME280;45801;51.810;19.444;2024-01-15T10:56:17;96583.29;;;0.67;75.12
59939;BME280;45801;51.810;19.444;2024-01-15T10:58:45;96580.23;;;0.68;74.81
59939;BME280;45801;51.810;19.444;2024-01-15T11:01:12;96590.96;;;0.70;74.65
59939;BME280;45801;51.810;19.444;2024-01-15T11:03:39;96587.91;;;0.67;74.76
59939;BME280;45801;51.810;19.444;2024-01-15T11:06:26;96587.03;;;0.75;74.92
59939;BME280;45801;51.810;19.444;2024-01-15T11:08:55;96587.30;;;0.87;74.91
59939;BME280;45801;51.810;19.444;2024-01-15T11:11:22;96583.02;;;0.87;74.05
59939;BME280;45801;51.810;19.444;2024-01-15T11:13:49;96584.47;;;0.80;72.84
59939;BME280;45801;51.810;19.444;2024-01-15T11:16:18;96581.73;;;0.85;73.28
59939;BME280;45801;51.810;19.444;2024-01-15T11:21:25;96585.78;;;0.82;72.78
59939;BME280;45801;51.810;19.444;2024-01-15T11:23:59;96577.75;;;0.85;72.94
59939;BME280;45801;51.810;19.444;2024-01-15T11:28:56;96570.52;;;0.94;73.32
59939;BME280;45801;51.810;19.444;2024-01-15T11:31:27;96563.66;;;0.95;73.03
59939;BME280;45801;51.810;19.444;2024-01-15T11:33:54;96559.08;;;0.92;72.66
59939;BME280;45801;51.810;19.444;2024-01-15T11:41:57;96557.13;;;0.91;72.62
59939;BME280;45801;51.810;19.444;2024-01-15T11:44:25;96562.23;;;0.80;73.05
59939;BME280;45801;51.810;19.444;2024-01-15T11:46:59;96561.81;;;0.78;73.54
59939;BME280;45801;51.810;19.444;2024-01-15T11:52:34;96566.41;;;0.81;73.73
59939;BME280;45801;51.810;19.444;2024-01-15T11:55:27;96571.98;;;0.78;73.06
59939;BME280;45801;51.810;19.444;2024-01-15T11:57:55;96572.10;;;0.68;73.29
59939;BME280;45801;51.810;19.444;2024-01-15T12:00:24;96574.36;;;0.68;73.42
59939;BME280;45801;51.810;19.444;2024-01-15T12:02:50;96572.92;;;0.76;73.65
59939;BME280;45801;51.810;19.444;2024-01-15T12:05:18;96570.02;;;0.85;73.54
59939;BME280;45801;51.810;19.444;2024-01-15T12:07:49;96566.17;;;0.88;73.24
59939;BME280;45801;51.810;19.444;2024-01-15T12:10:18;96569.96;;;0.93;73.17
59939;BME280;45801;51.810;19.444;2024-01-15T12:15:17;96571.15;;;0.83;72.59
59939;BME280;45801;51.810;19.444;2024-01-15T12:17:45;96577.62;;;0.77;73.08
59939;BME280;45801;51.810;19.444;2024-01-15T12:20:11;96569.28;;;0.79;72.79
59939;BME280;45801;51.810;19.444;2024-01-15T12:22:39;96569.86;;;0.76;72.05
59939;BME280;45801;51.810;19.444;2024-01-15T12:25:06;96574.09;;;0.83;72.17
59939;BME280;45801;51.810;19.444;2024-01-15T12:27:33;96565.55;;;0.85;72.11
59939;BME280;45801;51.810;19.444;2024-01-15T12:30:13;96568.78;;;0.84;72.59
59939;BME280;45801;51.810;19.444;2024-01-15T12:32:40;96573.27;;;0.89;72.94
59939;BME280;45801;51.810;19.444;2024-01-15T12:35:09;96568.91;;;0.88;72.97
59939;BME280;45801;51.810;19.444;2024-01-15T12:37:37;96560.80;;;0.88;72.92
59939;BME280;45801;51.810;19.444;2024-01-15T12:40:04;96563.79;;;0.94;72.92
59939;BME280;45801;51.810;19.444;2024-01-15T12:42:33;96571.38;;;0.98;72.60
59939;BME280;45801;51.810;19.444;2024-01-15T12:45:03;96574.87;;;0.95;72.45
59939;BME280;45801;51.810;19.444;2024-01-15T12:47:31;96571.83;;;1.01;72.74
59939;BME280;45801;51.810;19.444;2024-01-15T12:49:58;96572.83;;;1.05;72.65
59939;BME280;45801;51.810;19.444;2024-01-15T12:52:29;96573.70;;;1.10;72.67
59939;BME280;45801;51.810;19.444;2024-01-15T12:54:56;96569.02;;;1.19;72.77
59939;BME280;45801;51.810;19.444;2024-01-15T12:57:23;96565.48;;;1.20;72.82
59939;BME280;45801;51.810;19.444;2024-01-15T12:59:49;96560.92;;;1.24;73.08
59939;BME280;45801;51.810;19.444;2024-01-15T13:02:19;96560.64;;;1.21;73.19
59939;BME280;45801;51.810;19.444;2024-01-15T13:04:45;96560.30;;;1.20;73.26
59939;BME280;45801;51.810;19.444;2024-01-15T13:07:12;96569.73;;;1.10;73.54
59939;BME280;45801;51.810;19.444;2024-01-15T13:09:38;96571.53;;;1.07;73.45
59939;BME280;45801;51.810;19.444;2024-01-15T13:12:05;96575.13;;;1.02;73.74
59939;BME280;45801;51.810;19.444;2024-01-15T13:14:32;96575.19;;;0.90;74.12
59939;BME280;45801;51.810;19.444;2024-01-15T13:16:59;96579.33;;;0.95;74.14